West Potsdam, New York
Current Conditions -  °F | °C
As of 7:53 PM on Saturday 25 Oct 2014 (Local Time) from KMSS Reporting Station
Haze Haze  
Wind Chill: 51°   Ceiling: Unl
Heat Index: 51°   Visibility: 5mi
Dew Point: 50°   Wind: 9mph
Humidity: 96%   Direction: 230°SW
Pressure: 29.48"   Gusts: NA
Location:  44.6469°N, 74.9157°W
Report Text: KMSS 252353Z AUTO 23008KT 5SM BR CLR 11/10 A2948 RMK AO2 SLP985 60012 T01060100 10150 20106 53002
Loading
Personal Weather Stations






























Interactive Weather Map
Tropical Storm Tracking
New forecast layout! Learn more

10-Day Weather Forecast

Advertisements
Track Severe Weather on mobile